Terminal Aerodrome Forecast
Issued by NWS

Home | Current Version | Previous Version | Text Only | Print | Product List | Glossary On
Versions: 1 2 3 4 5 6 7 8 9 10 11 12 13 14 15 16 17 18 19 20 21 22
000
FTUS46 KPDT 221600 AAA
TAFBDN
TAF AMD
KBDN 221607Z 2216/2312 VRB04KT P6SM BKN060
     FM221800 18015G25KT P6SM VCSH BKN050 OVC080
     FM230200 18012KT P6SM -SHRA OVC035=

USA.gov is the U.S. government's official web portal to all federal, state and local government web resources and services.